createdAt,value
2017-12-10T00:01:45.550Z,1000.42
2017-12-10T00:03:47.161Z,1000.30
2017-12-10T00:05:48.606Z,1000.23
2017-12-10T00:07:50.147Z,1000.25
2017-12-10T00:09:51.594Z,1000.24
2017-12-10T00:11:53.058Z,1000.21
2017-12-10T00:13:54.523Z,1000.14
2017-12-10T00:15:55.928Z,1000.03
2017-12-10T00:17:57.348Z,1000.04
2017-12-10T00:19:58.906Z,999.99
2017-12-10T00:22:00.356Z,999.94
2017-12-10T00:24:01.952Z,999.86
2017-12-10T00:26:03.421Z,999.84
2017-12-10T00:28:04.890Z,999.74
2017-12-10T00:30:06.371Z,999.70
2017-12-10T00:32:07.831Z,999.62
2017-12-10T00:34:09.343Z,999.59
2017-12-10T00:36:10.988Z,999.53
2017-12-10T00:38:12.609Z,999.42
2017-12-10T00:40:14.203Z,999.42
2017-12-10T00:42:15.905Z,999.36
2017-12-10T00:44:17.764Z,999.32
2017-12-10T00:46:19.224Z,999.30
2017-12-10T00:48:20.720Z,999.24
2017-12-10T00:50:22.229Z,999.18
2017-12-10T00:52:23.687Z,999.10
2017-12-10T00:54:25.160Z,999.06
2017-12-10T00:56:26.629Z,999.02
2017-12-10T00:58:28.034Z,998.97
2017-12-10T01:00:29.501Z,998.91
2017-12-10T01:02:30.878Z,998.86
2017-12-10T01:04:32.377Z,998.88
2017-12-10T01:06:33.813Z,998.89
2017-12-10T01:08:35.699Z,998.90
2017-12-10T01:10:37.183Z,998.87
2017-12-10T01:12:38.657Z,998.88
2017-12-10T01:14:40.176Z,998.86
2017-12-10T01:16:41.796Z,998.85
2017-12-10T01:18:43.296Z,998.79
2017-12-10T01:20:44.712Z,998.75
2017-12-10T01:22:46.115Z,998.78
2017-12-10T01:24:47.526Z,998.83
2017-12-10T01:26:48.923Z,998.76
2017-12-10T01:28:50.372Z,998.77
2017-12-10T01:30:51.798Z,998.73
2017-12-10T01:32:53.209Z,998.69
2017-12-10T01:34:54.691Z,998.71
2017-12-10T01:36:56.091Z,998.71
2017-12-10T01:38:57.517Z,998.63
2017-12-10T01:40:58.967Z,998.61
2017-12-10T01:43:00.442Z,998.48
2017-12-10T01:45:01.987Z,998.42
2017-12-10T01:47:03.879Z,998.40
2017-12-10T01:49:05.487Z,998.38
2017-12-10T01:51:06.975Z,998.36
2017-12-10T01:53:08.424Z,998.36
2017-12-10T01:55:09.846Z,998.33
2017-12-10T01:57:11.242Z,998.27
2017-12-10T01:59:12.711Z,998.25
2017-12-10T02:01:14.092Z,998.22
2017-12-10T02:03:15.491Z,998.20
2017-12-10T02:05:16.922Z,998.11
2017-12-10T02:07:18.338Z,998.10
2017-12-10T02:09:19.761Z,998.06
2017-12-10T02:11:21.165Z,998.03
2017-12-10T02:13:22.608Z,997.92
2017-12-10T02:15:24.010Z,997.90
2017-12-10T02:17:25.409Z,997.85
2017-12-10T02:19:26.814Z,997.80
2017-12-10T02:21:28.251Z,997.78
2017-12-10T02:23:29.677Z,997.76
2017-12-10T02:25:31.138Z,997.75
2017-12-10T02:27:32.615Z,997.68
2017-12-10T02:29:34.022Z,997.66
2017-12-10T02:31:35.645Z,997.63
2017-12-10T02:33:37.058Z,997.56
2017-12-10T02:35:38.560Z,997.49
2017-12-10T02:37:40.059Z,997.44
2017-12-10T02:39:41.643Z,997.40
2017-12-10T02:41:43.053Z,997.35
2017-12-10T02:43:44.720Z,997.25
2017-12-10T02:45:46.354Z,997.17
2017-12-10T02:47:47.984Z,997.07
2017-12-10T02:49:49.438Z,997.06
2017-12-10T02:51:51.004Z,997.02
2017-12-10T02:53:52.449Z,996.97
2017-12-10T02:55:53.980Z,996.99
2017-12-10T02:57:55.439Z,996.96
2017-12-10T02:59:57.013Z,996.86
2017-12-10T03:01:58.565Z,996.78
2017-12-10T03:04:00.022Z,996.77
2017-12-10T03:06:01.443Z,996.74
2017-12-10T03:08:02.916Z,996.63
2017-12-10T03:10:04.409Z,996.52
2017-12-10T03:12:06.072Z,996.49
2017-12-10T03:14:07.728Z,996.51
2017-12-10T03:16:09.193Z,996.50
2017-12-10T03:18:10.660Z,996.43
2017-12-10T03:20:12.196Z,996.40
2017-12-10T03:22:13.703Z,996.35
2017-12-10T03:24:15.157Z,996.30
2017-12-10T03:26:16.594Z,996.28
2017-12-10T03:28:18.056Z,996.20
2017-12-10T03:30:19.600Z,996.13
2017-12-10T03:32:21.100Z,996.11
2017-12-10T03:34:22.559Z,996.16
2017-12-10T03:36:24.036Z,996.05
2017-12-10T03:38:25.477Z,996.04
2017-12-10T03:40:26.916Z,995.97
2017-12-10T03:42:28.440Z,995.89
2017-12-10T03:44:29.897Z,995.83
2017-12-10T03:46:31.375Z,995.75
2017-12-10T03:48:32.891Z,995.76
2017-12-10T03:50:34.361Z,995.66
2017-12-10T03:52:35.989Z,995.70
2017-12-10T03:54:37.622Z,995.62
2017-12-10T03:56:39.290Z,995.59
2017-12-10T03:58:40.791Z,995.54
2017-12-10T04:00:42.256Z,995.51
2017-12-10T04:02:43.735Z,995.50
2017-12-10T04:04:45.198Z,995.40
2017-12-10T04:06:46.704Z,995.36
2017-12-10T04:08:48.118Z,995.36
2017-12-10T04:10:49.680Z,995.28
2017-12-10T04:12:51.159Z,995.24
2017-12-10T04:14:52.617Z,995.19
2017-12-10T04:16:54.119Z,995.22
2017-12-10T04:18:55.595Z,995.22
2017-12-10T04:20:57.093Z,995.14
2017-12-10T04:22:58.548Z,995.10
2017-12-10T04:25:00.020Z,995.09
2017-12-10T04:27:01.464Z,995.05
2017-12-10T04:29:02.905Z,995.01
2017-12-10T04:31:04.368Z,995.01
2017-12-10T04:33:05.976Z,994.91
2017-12-10T04:35:07.466Z,994.89
2017-12-10T04:37:08.949Z,994.77
2017-12-10T04:39:10.422Z,994.76
2017-12-10T04:41:11.895Z,994.72
2017-12-10T04:43:13.342Z,994.66
2017-12-10T04:45:14.819Z,994.64
2017-12-10T04:47:16.303Z,994.63
2017-12-10T04:49:17.853Z,994.59
2017-12-10T04:51:19.292Z,994.54
2017-12-10T04:53:20.801Z,994.55
2017-12-10T04:55:22.284Z,994.46
2017-12-10T04:57:23.739Z,994.43
2017-12-10T04:59:25.234Z,994.32
2017-12-10T05:01:26.827Z,994.29
2017-12-10T05:03:28.346Z,994.24
2017-12-10T05:05:29.860Z,994.16
2017-12-10T05:07:31.377Z,994.07
2017-12-10T05:09:32.852Z,994.00
2017-12-10T05:11:34.369Z,993.91
2017-12-10T05:13:35.827Z,993.82
2017-12-10T05:15:37.290Z,993.79
2017-12-10T05:17:38.767Z,993.72
2017-12-10T05:19:40.305Z,993.62
2017-12-10T05:21:41.826Z,993.52
2017-12-10T05:23:43.320Z,993.45
2017-12-10T05:25:44.928Z,993.32
2017-12-10T05:27:46.449Z,993.33
2017-12-10T05:29:47.919Z,993.24
2017-12-10T05:31:49.391Z,993.19
2017-12-10T05:33:50.978Z,993.20
2017-12-10T05:35:52.465Z,993.14
2017-12-10T05:37:53.947Z,992.99
2017-12-10T05:39:55.440Z,992.97
2017-12-10T05:41:56.943Z,992.86
2017-12-10T05:43:58.393Z,992.79
2017-12-10T05:45:59.924Z,992.72
2017-12-10T05:48:01.439Z,992.59
2017-12-10T05:50:03.018Z,992.52
2017-12-10T05:52:04.437Z,992.47
2017-12-10T05:54:05.899Z,992.40
2017-12-10T05:56:07.545Z,992.31
2017-12-10T05:58:09.197Z,992.15
2017-12-10T06:00:10.624Z,992.12
2017-12-10T06:02:12.033Z,992.06
2017-12-10T06:04:13.436Z,992.03
2017-12-10T06:06:14.837Z,991.96
2017-12-10T06:08:16.241Z,991.92
2017-12-10T06:10:17.645Z,991.92
2017-12-10T06:12:19.048Z,991.87
2017-12-10T06:14:20.528Z,991.81
2017-12-10T06:16:22.180Z,991.72
2017-12-10T06:18:23.750Z,991.67
2017-12-10T06:20:25.252Z,991.55
2017-12-10T06:22:26.723Z,991.53
2017-12-10T06:24:28.389Z,991.44
2017-12-10T06:26:29.877Z,991.36
2017-12-10T06:28:31.336Z,991.36
2017-12-10T06:30:32.824Z,991.30
2017-12-10T06:32:34.230Z,991.27
2017-12-10T06:34:35.653Z,991.21
2017-12-10T06:36:37.141Z,991.15
2017-12-10T06:38:38.681Z,991.10
2017-12-10T06:40:40.121Z,990.99
2017-12-10T06:42:41.592Z,990.88
2017-12-10T06:44:43.090Z,990.88
2017-12-10T06:46:44.594Z,990.76
2017-12-10T06:48:46.118Z,990.80
2017-12-10T06:50:47.648Z,990.72
2017-12-10T06:52:49.131Z,990.62
2017-12-10T06:54:50.730Z,990.59
2017-12-10T06:56:52.333Z,990.53
2017-12-10T06:58:53.834Z,990.47
2017-12-10T07:00:55.282Z,990.45
2017-12-10T07:02:56.738Z,990.36
2017-12-10T07:04:58.415Z,990.40
2017-12-10T07:07:00.570Z,990.28
2017-12-10T07:09:02.164Z,990.27
2017-12-10T07:11:44.603Z,990.17
2017-12-10T07:13:45.991Z,990.05
2017-12-10T07:15:47.394Z,989.99
2017-12-10T07:17:48.793Z,989.99
2017-12-10T07:19:50.213Z,989.97
2017-12-10T07:21:51.605Z,989.94
2017-12-10T07:23:53.018Z,989.87
2017-12-10T07:25:54.443Z,989.78
2017-12-10T07:28:36.878Z,989.71
2017-12-10T07:30:38.279Z,989.64
2017-12-10T07:32:39.680Z,989.54
2017-12-10T07:34:41.145Z,989.42
2017-12-10T07:36:42.554Z,989.34
2017-12-10T07:38:44.035Z,989.27
2017-12-10T07:40:45.437Z,989.21
2017-12-10T07:42:46.941Z,989.16
2017-12-10T07:44:48.404Z,989.05
2017-12-10T07:46:49.879Z,988.96
2017-12-10T07:48:51.293Z,988.86
2017-12-10T07:50:52.694Z,988.75
2017-12-10T07:52:54.116Z,988.68
2017-12-10T07:54:55.527Z,988.60
2017-12-10T07:56:56.933Z,988.48
2017-12-10T07:58:58.332Z,988.46
2017-12-10T08:00:59.808Z,988.42
2017-12-10T08:03:01.303Z,988.39
2017-12-10T08:05:02.791Z,988.34
2017-12-10T08:07:04.236Z,988.30
2017-12-10T08:09:46.616Z,988.20
2017-12-10T08:11:48.022Z,988.10
2017-12-10T08:13:49.426Z,988.08
2017-12-10T08:15:50.872Z,988.04
2017-12-10T08:17:52.276Z,987.91
2017-12-10T08:19:53.683Z,987.88
2017-12-10T08:21:55.074Z,987.74
2017-12-10T08:23:56.486Z,987.73
2017-12-10T08:25:57.883Z,987.64
2017-12-10T08:27:59.301Z,987.63
2017-12-10T08:30:00.704Z,987.57
2017-12-10T08:32:02.111Z,987.49
2017-12-10T08:34:03.518Z,987.37
2017-12-10T08:36:05.013Z,987.30
2017-12-10T08:38:06.401Z,987.19
2017-12-10T08:40:07.802Z,987.10
2017-12-10T08:42:09.214Z,986.96
2017-12-10T08:44:10.812Z,987.00
2017-12-10T08:46:12.374Z,986.79
2017-12-10T08:48:13.783Z,986.67
2017-12-10T08:50:15.184Z,986.65
2017-12-10T08:52:16.589Z,986.51
2017-12-10T08:54:17.998Z,986.46
2017-12-10T08:56:19.408Z,986.44
2017-12-10T08:58:20.836Z,986.33
2017-12-10T09:00:22.498Z,986.23
2017-12-10T09:02:23.899Z,986.13
2017-12-10T09:04:25.365Z,986.01
2017-12-10T09:06:26.836Z,985.87
2017-12-10T09:08:28.257Z,985.79
2017-12-10T09:10:29.771Z,985.70
2017-12-10T09:12:31.234Z,985.59
2017-12-10T09:14:32.733Z,985.57
2017-12-10T09:16:34.279Z,985.42
2017-12-10T09:18:35.779Z,985.41
2017-12-10T09:20:37.203Z,985.35
2017-12-10T09:22:38.876Z,985.15
2017-12-10T09:24:40.278Z,985.02
2017-12-10T09:26:41.707Z,984.95
2017-12-10T09:28:43.136Z,984.95
2017-12-10T09:30:44.546Z,984.86
2017-12-10T09:32:46.181Z,984.80
2017-12-10T09:34:47.593Z,984.71
2017-12-10T09:36:49.082Z,984.63
2017-12-10T09:38:50.515Z,984.49
2017-12-10T09:40:52.133Z,984.32
2017-12-10T09:42:53.631Z,984.29
2017-12-10T09:44:55.133Z,984.19
2017-12-10T09:46:56.601Z,984.10
2017-12-10T09:48:58.220Z,984.19
2017-12-10T09:50:59.695Z,984.05
2017-12-10T09:53:01.170Z,984.01
2017-12-10T09:55:02.656Z,983.93
2017-12-10T09:57:04.144Z,983.83
2017-12-10T09:59:05.640Z,983.78
2017-12-10T10:01:07.332Z,983.62
2017-12-10T10:03:08.836Z,983.49
2017-12-10T10:05:10.331Z,983.43
2017-12-10T10:07:11.828Z,983.22
2017-12-10T10:09:13.335Z,983.13
2017-12-10T10:11:14.835Z,983.10
2017-12-10T10:13:16.288Z,983.07
2017-12-10T10:15:17.851Z,983.00
2017-12-10T10:17:19.315Z,982.81
2017-12-10T10:19:20.729Z,982.82
2017-12-10T10:21:22.142Z,982.68
2017-12-10T10:23:23.544Z,982.51
2017-12-10T10:25:25.114Z,982.42
2017-12-10T10:27:26.546Z,982.33
2017-12-10T10:30:08.930Z,982.20
2017-12-10T10:32:10.339Z,982.10
2017-12-10T10:34:11.743Z,981.99
2017-12-10T10:36:13.154Z,981.87
2017-12-10T10:38:14.561Z,981.77
2017-12-10T10:40:15.977Z,981.58
2017-12-10T10:42:17.374Z,981.44
2017-12-10T10:44:18.772Z,981.22
2017-12-10T10:46:20.178Z,981.17
2017-12-10T10:48:21.594Z,981.03
2017-12-10T10:50:23.007Z,980.88
2017-12-10T10:52:24.409Z,980.71
2017-12-10T10:54:25.830Z,980.59
2017-12-10T10:56:27.226Z,980.48
2017-12-10T10:58:28.639Z,980.46
2017-12-10T11:00:30.040Z,980.38
2017-12-10T11:02:31.460Z,980.27
2017-12-10T11:04:32.872Z,980.16
2017-12-10T11:06:34.315Z,980.01
2017-12-10T11:08:35.743Z,979.89
2017-12-10T11:10:37.149Z,979.75
2017-12-10T11:12:38.605Z,979.71
2017-12-10T11:14:40.204Z,979.60
2017-12-10T11:16:41.652Z,979.52
2017-12-10T11:18:43.304Z,979.43
2017-12-10T11:20:44.942Z,979.34
2017-12-10T11:22:46.445Z,979.23
2017-12-10T11:24:47.899Z,979.14
2017-12-10T11:26:49.407Z,979.11
2017-12-10T11:28:50.943Z,979.05
2017-12-10T11:30:52.406Z,978.98
2017-12-10T11:32:53.870Z,978.93
2017-12-10T11:35:36.270Z,978.89
2017-12-10T11:37:37.699Z,978.74
2017-12-10T11:39:39.350Z,978.76
2017-12-10T11:41:40.752Z,978.76
2017-12-10T11:43:42.166Z,978.57
2017-12-10T11:45:43.564Z,978.49
2017-12-10T11:47:44.970Z,978.28
2017-12-10T11:49:46.486Z,978.16
2017-12-10T11:51:47.866Z,978.08
2017-12-10T11:53:49.283Z,978.12
2017-12-10T11:55:50.726Z,978.03
2017-12-10T11:57:52.132Z,977.91
2017-12-10T11:59:53.552Z,977.78
2017-12-10T12:01:55.009Z,977.70
2017-12-10T12:03:56.425Z,977.64
2017-12-10T12:05:57.994Z,977.61
2017-12-10T12:07:59.509Z,977.54
2017-12-10T12:10:00.960Z,977.49
2017-12-10T12:12:02.439Z,977.19
2017-12-10T12:14:03.843Z,977.05
2017-12-10T12:16:05.264Z,976.96
2017-12-10T12:18:06.678Z,977.03
2017-12-10T12:20:08.083Z,977.03
2017-12-10T12:22:09.533Z,976.90
2017-12-10T12:24:10.939Z,976.89
2017-12-10T12:26:12.348Z,976.79
2017-12-10T12:28:13.788Z,976.85
2017-12-10T12:30:15.228Z,976.92
2017-12-10T12:32:16.763Z,976.83
2017-12-10T12:34:18.410Z,976.71
2017-12-10T12:36:19.936Z,976.59
2017-12-10T12:38:21.430Z,976.45
2017-12-10T12:40:22.849Z,976.43
2017-12-10T12:42:24.457Z,976.34
2017-12-10T12:44:25.915Z,976.20
2017-12-10T12:46:27.383Z,976.10
2017-12-10T12:49:09.894Z,976.09
2017-12-10T12:51:11.464Z,975.98
2017-12-10T12:53:12.876Z,975.88
2017-12-10T12:55:14.273Z,975.77
2017-12-10T12:57:16.066Z,975.85
2017-12-10T12:59:17.465Z,975.79
2017-12-10T13:01:18.954Z,975.68
2017-12-10T13:03:20.363Z,975.61
2017-12-10T13:05:21.999Z,975.50
2017-12-10T13:07:23.516Z,975.41
2017-12-10T13:09:24.930Z,975.29
2017-12-10T13:11:26.335Z,975.21
2017-12-10T13:13:27.740Z,975.21
2017-12-10T13:15:29.145Z,975.18
2017-12-10T13:17:30.554Z,975.07
2017-12-10T13:20:13.235Z,974.99
2017-12-10T13:22:14.635Z,974.88
2017-12-10T13:24:16.041Z,974.83
2017-12-10T13:26:17.472Z,974.80
2017-12-10T13:28:18.896Z,974.58
2017-12-10T13:30:20.297Z,974.49
2017-12-10T13:32:21.704Z,974.41
2017-12-10T13:34:23.110Z,974.25
2017-12-10T13:36:24.514Z,974.21
2017-12-10T13:38:26.013Z,974.12
2017-12-10T13:40:27.523Z,974.04
2017-12-10T13:42:28.970Z,973.99
2017-12-10T13:44:30.506Z,973.90
2017-12-10T13:46:31.962Z,973.82
2017-12-10T13:48:33.382Z,973.66
2017-12-10T13:50:34.893Z,973.60
2017-12-10T13:52:36.363Z,973.54
2017-12-10T13:54:37.880Z,973.44
2017-12-10T13:56:39.381Z,973.34
2017-12-10T13:58:40.859Z,973.30
2017-12-10T14:00:42.476Z,973.27
2017-12-10T14:02:43.993Z,973.16
2017-12-10T14:04:45.461Z,973.11
2017-12-10T14:06:46.886Z,973.00
2017-12-10T14:08:48.412Z,972.92
2017-12-10T14:10:49.850Z,972.79
2017-12-10T14:12:51.354Z,972.78
2017-12-10T14:14:52.902Z,972.75
2017-12-10T14:16:54.609Z,972.72
2017-12-10T14:18:56.239Z,972.57
2017-12-10T14:20:57.665Z,972.56
2017-12-10T14:22:59.131Z,972.53
2017-12-10T14:25:00.592Z,972.46
2017-12-10T14:27:02.239Z,972.36
2017-12-10T14:29:03.846Z,972.31
2017-12-10T14:31:05.279Z,972.19
2017-12-10T14:33:06.767Z,972.18
2017-12-10T14:35:08.353Z,972.21
2017-12-10T14:37:10.030Z,972.17
2017-12-10T14:39:11.574Z,972.08
2017-12-10T14:41:13.209Z,972.00
2017-12-10T14:43:14.698Z,971.91
2017-12-10T14:45:16.264Z,971.90
2017-12-10T14:47:17.761Z,971.81
2017-12-10T14:49:19.244Z,971.69
2017-12-10T14:51:20.733Z,971.61
2017-12-10T14:53:22.245Z,971.55
2017-12-10T14:55:23.851Z,971.47
2017-12-10T14:57:25.324Z,971.41
2017-12-10T14:59:26.761Z,971.36
2017-12-10T15:01:28.266Z,971.40
2017-12-10T15:03:29.782Z,971.38
2017-12-10T15:05:31.396Z,971.42
2017-12-10T15:07:33.028Z,971.39
2017-12-10T15:09:34.489Z,971.40
2017-12-10T15:11:35.974Z,971.27
2017-12-10T15:13:37.465Z,971.16
2017-12-10T15:15:38.977Z,971.05
2017-12-10T15:17:40.423Z,971.01
2017-12-10T15:19:41.890Z,970.89
2017-12-10T15:21:43.367Z,970.64
2017-12-10T15:23:44.775Z,970.73
2017-12-10T15:25:46.243Z,970.85
2017-12-10T15:27:47.731Z,970.84
2017-12-10T15:29:49.173Z,970.84
2017-12-10T15:31:50.889Z,970.73
2017-12-10T15:33:52.421Z,970.66
2017-12-10T15:35:53.932Z,970.50
2017-12-10T15:37:55.614Z,970.59
2017-12-10T15:39:57.081Z,970.47
2017-12-10T15:41:58.685Z,970.54
2017-12-10T15:44:00.168Z,970.49
2017-12-10T15:46:01.626Z,970.45
2017-12-10T15:48:03.028Z,970.51
2017-12-10T15:50:04.493Z,970.41
2017-12-10T15:52:05.955Z,970.47
2017-12-10T15:54:07.418Z,970.43
2017-12-10T15:56:08.895Z,970.41
2017-12-10T15:58:10.359Z,970.34
2017-12-10T16:00:11.930Z,970.20
2017-12-10T16:02:13.473Z,970.15
2017-12-10T16:04:15.860Z,970.02
2017-12-10T16:06:17.330Z,970.06
2017-12-10T16:08:18.845Z,969.94
2017-12-10T16:10:20.278Z,969.79
2017-12-10T16:12:21.728Z,969.75
2017-12-10T16:14:23.282Z,969.64
2017-12-10T16:16:24.752Z,969.70
2017-12-10T16:18:26.246Z,969.67
2017-12-10T16:20:27.689Z,969.60
2017-12-10T16:22:29.445Z,969.59
2017-12-10T16:24:30.983Z,969.60
2017-12-10T16:26:32.493Z,969.60
2017-12-10T16:28:34.017Z,969.52
2017-12-10T16:30:35.462Z,969.53
2017-12-10T16:32:37.336Z,969.51
2017-12-10T16:34:38.845Z,969.43
2017-12-10T16:36:40.378Z,969.43
2017-12-10T16:38:41.791Z,969.27
2017-12-10T16:40:43.379Z,969.23
2017-12-10T16:42:44.821Z,969.14
2017-12-10T16:44:46.397Z,969.12
2017-12-10T16:46:47.911Z,969.03
2017-12-10T16:48:49.425Z,969.03
2017-12-10T16:50:50.936Z,968.93
2017-12-10T16:52:52.421Z,968.87
2017-12-10T16:54:53.875Z,968.78
2017-12-10T16:56:55.358Z,968.70
2017-12-10T16:58:56.830Z,968.79
2017-12-10T17:00:58.314Z,968.66
2017-12-10T17:03:40.716Z,968.50
2017-12-10T17:05:42.117Z,968.55
2017-12-10T17:07:43.519Z,968.57
2017-12-10T17:09:44.925Z,968.47
2017-12-10T17:11:46.322Z,968.38
2017-12-10T17:13:47.834Z,968.28
2017-12-10T17:15:49.236Z,968.18
2017-12-10T17:17:50.636Z,968.33
2017-12-10T17:19:52.038Z,968.20
2017-12-10T17:21:53.453Z,968.25
2017-12-10T17:23:54.858Z,968.18
2017-12-10T17:25:56.257Z,968.08
2017-12-10T17:27:57.680Z,968.02
2017-12-10T17:29:59.312Z,967.91
2017-12-10T17:32:00.785Z,967.77
2017-12-10T17:34:02.193Z,967.75
2017-12-10T17:36:03.594Z,967.70
2017-12-10T17:38:04.994Z,967.70
2017-12-10T17:40:06.409Z,967.70
2017-12-10T17:42:07.937Z,967.73
2017-12-10T17:44:09.459Z,967.70
2017-12-10T17:46:10.941Z,967.65
2017-12-10T17:48:12.575Z,967.68
2017-12-10T17:50:14.043Z,967.65
2017-12-10T17:52:56.424Z,967.71
2017-12-10T17:54:57.829Z,967.70
2017-12-10T17:56:59.237Z,967.69
2017-12-10T17:59:00.645Z,967.66
2017-12-10T18:01:02.053Z,967.63
2017-12-10T18:03:03.454Z,967.57
2017-12-10T18:05:04.846Z,967.55
2017-12-10T18:07:06.256Z,967.57
2017-12-10T18:09:07.663Z,967.62
2017-12-10T18:11:09.066Z,967.61
2017-12-10T18:13:10.478Z,967.61
2017-12-10T18:15:11.976Z,967.61
2017-12-10T18:17:13.415Z,967.59
2017-12-10T18:19:14.819Z,967.63
2017-12-10T18:21:17.790Z,967.58
2017-12-10T18:23:19.200Z,967.63
2017-12-10T18:25:20.750Z,967.64
2017-12-10T18:27:22.350Z,967.66
2017-12-10T18:29:23.821Z,967.64
2017-12-10T18:31:25.322Z,967.59
2017-12-10T18:33:26.737Z,967.71
2017-12-10T18:35:28.138Z,967.67
2017-12-10T18:37:29.569Z,967.70
2017-12-10T18:39:30.980Z,967.71
2017-12-10T18:42:12.376Z,967.70
2017-12-10T18:44:13.860Z,967.70
2017-12-10T18:46:15.256Z,967.73
2017-12-10T18:48:57.638Z,967.75
2017-12-10T18:50:59.040Z,967.76
2017-12-10T18:53:00.441Z,967.70
2017-12-10T18:55:01.933Z,967.84
2017-12-10T18:57:44.323Z,967.83
2017-12-10T18:59:45.728Z,967.82
2017-12-10T19:01:47.140Z,967.84
2017-12-10T19:03:48.529Z,967.86
2017-12-10T19:05:49.925Z,967.83
2017-12-10T19:07:51.332Z,967.89
2017-12-10T19:09:52.731Z,967.88
2017-12-10T19:11:54.135Z,967.94
2017-12-10T19:13:55.539Z,967.84
2017-12-10T19:15:56.939Z,967.95
2017-12-10T19:18:39.650Z,968.02
2017-12-10T19:20:41.330Z,968.04
2017-12-10T19:22:42.736Z,968.08
2017-12-10T19:24:44.136Z,968.05
2017-12-10T19:26:45.537Z,968.06
2017-12-10T19:28:46.942Z,968.14
2017-12-10T19:30:48.363Z,968.17
2017-12-10T19:32:49.767Z,968.24
2017-12-10T19:34:51.226Z,968.25
2017-12-10T19:36:52.624Z,968.23
2017-12-10T19:38:54.085Z,968.26
2017-12-10T19:40:55.614Z,968.27
2017-12-10T19:42:57.023Z,968.32
2017-12-10T19:44:58.435Z,968.29
2017-12-10T19:46:59.911Z,968.25
2017-12-10T19:49:01.439Z,968.23
2017-12-10T19:51:02.862Z,968.13
2017-12-10T19:53:04.343Z,968.13
2017-12-10T19:55:05.880Z,968.18
2017-12-10T19:57:07.360Z,968.20
2017-12-10T19:59:08.811Z,968.20
2017-12-10T20:01:10.271Z,968.23
2017-12-10T20:03:11.772Z,968.21
2017-12-10T20:05:13.236Z,968.18
2017-12-10T20:07:15.513Z,968.16
2017-12-10T20:09:17.146Z,968.22
2017-12-10T20:11:18.744Z,968.25
2017-12-10T20:13:20.380Z,968.22
2017-12-10T20:15:21.932Z,968.34
2017-12-10T20:17:23.435Z,968.54
2017-12-10T20:19:25.088Z,968.37
2017-12-10T20:21:26.671Z,968.30
2017-12-10T20:23:28.146Z,968.33
2017-12-10T20:25:29.624Z,968.33
2017-12-10T20:27:31.286Z,968.34
2017-12-10T20:29:32.759Z,968.34
2017-12-10T20:31:34.219Z,968.39
2017-12-10T20:33:35.689Z,968.40
2017-12-10T20:35:37.165Z,968.27
2017-12-10T20:37:38.600Z,968.31
2017-12-10T20:39:40.102Z,968.35
2017-12-10T20:41:41.539Z,968.29
2017-12-10T20:43:43.036Z,968.33
2017-12-10T20:45:44.482Z,968.29
2017-12-10T20:47:46.124Z,968.37
2017-12-10T20:49:47.819Z,968.28
2017-12-10T20:51:49.405Z,968.41
2017-12-10T20:53:50.868Z,968.34
2017-12-10T20:55:52.374Z,968.32
2017-12-10T20:57:53.962Z,968.32
2017-12-10T20:59:55.461Z,968.38
2017-12-10T21:01:56.975Z,968.36
2017-12-10T21:03:58.436Z,968.27
2017-12-10T21:05:59.850Z,968.30
2017-12-10T21:08:01.250Z,968.32
2017-12-10T21:10:02.840Z,968.34
2017-12-10T21:12:04.452Z,968.19
2017-12-10T21:14:05.929Z,968.34
2017-12-10T21:16:07.472Z,968.34
2017-12-10T21:18:09.364Z,968.35
2017-12-10T21:20:10.889Z,968.42
2017-12-10T21:22:12.354Z,968.48
2017-12-10T21:24:13.876Z,968.63
2017-12-10T21:26:15.378Z,968.48
2017-12-10T21:28:16.895Z,968.55
2017-12-10T21:30:59.296Z,968.65
2017-12-10T21:33:00.693Z,968.75
2017-12-10T21:35:02.169Z,968.66
2017-12-10T21:37:03.557Z,968.78
2017-12-10T21:39:05.025Z,968.88
2017-12-10T21:41:06.632Z,968.98
2017-12-10T21:43:08.039Z,968.93
2017-12-10T21:45:09.470Z,968.99
2017-12-10T21:47:10.888Z,968.97
2017-12-10T21:49:53.664Z,969.11
2017-12-10T21:51:55.010Z,969.12
2017-12-10T21:53:56.405Z,969.24
2017-12-10T21:55:57.810Z,969.36
2017-12-10T21:57:59.206Z,969.42
2017-12-10T22:00:00.614Z,969.65
2017-12-10T22:02:02.017Z,969.65
2017-12-10T22:04:44.391Z,969.70
2017-12-10T22:07:27.081Z,969.89
2017-12-10T22:09:28.439Z,969.98
2017-12-10T22:11:29.838Z,969.95
2017-12-10T22:14:12.629Z,970.19
2017-12-10T22:16:14.024Z,970.22
2017-12-10T22:18:15.427Z,970.23
2017-12-10T22:20:17.299Z,970.30
2017-12-10T22:22:18.701Z,970.40
2017-12-10T22:24:20.109Z,970.59
2017-12-10T22:26:21.516Z,970.58
2017-12-10T22:28:22.920Z,970.61
2017-12-10T22:30:24.389Z,970.81
2017-12-10T22:32:25.820Z,970.88
2017-12-10T22:34:27.357Z,971.00
2017-12-10T22:36:29.774Z,971.03
2017-12-10T22:38:31.272Z,971.11
2017-12-10T22:40:32.748Z,971.15
2017-12-10T22:42:34.248Z,971.35
2017-12-10T22:44:35.759Z,971.39
2017-12-10T22:46:37.289Z,971.56
2017-12-10T22:48:38.766Z,971.67
2017-12-10T22:50:40.256Z,971.76
2017-12-10T22:52:41.732Z,971.81
2017-12-10T22:54:43.174Z,972.01
2017-12-10T22:56:44.628Z,972.02
2017-12-10T22:58:46.100Z,972.21
2017-12-10T23:00:47.782Z,972.34
2017-12-10T23:02:49.245Z,972.42
2017-12-10T23:04:50.744Z,972.54
2017-12-10T23:06:52.244Z,972.64
2017-12-10T23:08:53.732Z,972.78
2017-12-10T23:10:55.282Z,972.91
2017-12-10T23:12:56.779Z,973.00
2017-12-10T23:14:58.270Z,973.10
2017-12-10T23:16:59.917Z,973.27
2017-12-10T23:19:01.468Z,973.40
2017-12-10T23:21:03.284Z,973.54
2017-12-10T23:23:04.902Z,973.73
2017-12-10T23:25:06.493Z,973.87
2017-12-10T23:27:08.499Z,973.93
2017-12-10T23:29:12.282Z,974.04
2017-12-10T23:31:13.698Z,974.08
2017-12-10T23:33:15.149Z,974.28
2017-12-10T23:35:16.613Z,974.35
2017-12-10T23:37:18.121Z,974.44
2017-12-10T23:39:19.732Z,974.60
2017-12-10T23:41:21.501Z,974.73
2017-12-10T23:43:23.007Z,974.88
2017-12-10T23:45:24.496Z,974.95
2017-12-10T23:47:25.936Z,974.95
2017-12-10T23:49:27.571Z,975.05
2017-12-10T23:51:29.213Z,975.16
2017-12-10T23:53:30.690Z,975.34
2017-12-10T23:55:32.213Z,975.45
2017-12-10T23:57:33.677Z,975.49
2017-12-10T23:59:35.182Z,975.66
